createdAt,value
2022-11-23T00:01:15.780Z,75929.41
2022-11-23T00:03:43.868Z,75929.41
2022-11-23T00:06:12.359Z,75923.28
2022-11-23T00:08:40.624Z,75931.44
2022-11-23T00:11:08.530Z,75931.44
2022-11-23T00:13:40.077Z,75933.47
2022-11-23T00:16:08.460Z,75937.53
2022-11-23T00:18:36.526Z,75931.44
2022-11-23T00:21:07.864Z,75939.59
2022-11-23T00:23:36.097Z,75941.63
2022-11-23T00:26:04.038Z,75937.53
2022-11-23T00:28:31.965Z,75943.66
2022-11-23T00:31:01.178Z,75937.53
2022-11-23T00:33:28.936Z,75941.63
2022-11-23T00:36:00.968Z,75943.66
2022-11-23T00:38:29.476Z,75947.75
2022-11-23T00:41:01.803Z,75943.66
2022-11-23T00:43:30.746Z,75941.63
2022-11-23T00:46:08.792Z,75939.59
2022-11-23T00:48:36.976Z,75939.59
2022-11-23T00:51:06.584Z,75951.81
2022-11-23T00:53:34.455Z,75943.66
2022-11-23T00:56:02.751Z,75943.66
2022-11-23T00:58:30.552Z,75941.63
2022-11-23T01:01:03.733Z,75943.66
2022-11-23T01:03:33.384Z,75943.66
2022-11-23T01:06:09.246Z,75943.66
2022-11-23T01:08:37.278Z,75949.78
2022-11-23T01:11:07.420Z,75951.81
2022-11-23T01:13:35.223Z,75955.91
2022-11-23T01:16:03.188Z,75951.81
2022-11-23T01:18:30.949Z,75947.75
2022-11-23T01:21:01.941Z,75947.75
2022-11-23T01:23:29.939Z,75955.91
2022-11-23T01:25:57.754Z,75964.06
2022-11-23T01:28:25.795Z,75964.06
2022-11-23T01:30:53.616Z,75957.94
2022-11-23T01:33:21.407Z,75951.81
2022-11-23T01:35:49.201Z,75955.91
2022-11-23T01:38:18.652Z,75959.97
2022-11-23T01:40:46.598Z,75968.13
2022-11-23T01:43:17.437Z,75968.13
2022-11-23T01:45:57.275Z,75957.94
2022-11-23T01:48:28.993Z,75968.13
2022-11-23T01:50:59.178Z,75968.13
2022-11-23T01:53:30.082Z,75974.25
2022-11-23T01:56:01.482Z,75974.25
2022-11-23T01:58:32.677Z,75976.28
2022-11-23T02:01:00.859Z,75976.28
2022-11-23T02:03:30.465Z,75980.34
2022-11-23T02:06:02.525Z,75984.44
2022-11-23T02:08:32.663Z,75984.44
2022-11-23T02:11:01.229Z,75980.34
2022-11-23T02:13:30.107Z,75984.44
2022-11-23T02:15:59.258Z,75984.44
2022-11-23T02:18:30.285Z,75984.44
2022-11-23T02:20:59.068Z,75986.47
2022-11-23T02:23:37.384Z,75982.41
2022-11-23T02:26:09.826Z,75988.50
2022-11-23T02:28:42.226Z,75984.44
2022-11-23T02:31:10.214Z,75996.66
2022-11-23T02:33:38.944Z,75990.56
2022-11-23T02:36:38.347Z,75988.50
2022-11-23T02:39:12.556Z,75988.50
2022-11-23T02:41:43.514Z,75996.66
2022-11-23T02:44:22.176Z,75992.59
2022-11-23T02:46:50.145Z,75996.66
2022-11-23T02:49:18.035Z,76004.81
2022-11-23T02:51:45.860Z,76000.75
2022-11-23T02:54:13.856Z,76006.88
2022-11-23T02:56:43.060Z,76000.75
2022-11-23T02:59:10.860Z,76002.78
2022-11-23T03:01:40.151Z,76002.78
2022-11-23T03:04:08.036Z,76002.78
2022-11-23T03:06:35.916Z,76004.81
2022-11-23T03:09:03.724Z,76008.91
2022-11-23T03:11:31.531Z,76017.06
2022-11-23T03:14:00.970Z,76008.91
2022-11-23T03:16:28.814Z,76017.06
2022-11-23T03:18:56.652Z,76008.91
2022-11-23T03:21:24.461Z,76004.81
2022-11-23T03:23:52.242Z,76008.91
2022-11-23T03:26:20.094Z,76010.94
2022-11-23T03:28:47.847Z,76006.88
2022-11-23T03:31:17.072Z,76012.97
2022-11-23T03:33:44.884Z,76012.97
2022-11-23T03:36:12.701Z,76015.03
2022-11-23T03:38:40.461Z,76015.03
2022-11-23T03:41:08.349Z,76017.06
2022-11-23T03:43:36.240Z,76015.03
2022-11-23T03:46:04.095Z,76012.97
2022-11-23T03:48:33.273Z,76017.06
2022-11-23T03:51:01.079Z,76015.03
2022-11-23T03:53:28.822Z,76008.91
2022-11-23T03:55:58.160Z,76012.97
2022-11-23T03:58:25.938Z,76017.06
2022-11-23T04:00:53.874Z,76012.97
2022-11-23T04:03:21.793Z,76015.03
2022-11-23T04:05:50.935Z,76012.97
2022-11-23T04:08:18.917Z,76017.06
2022-11-23T04:10:46.825Z,76012.97
2022-11-23T04:13:14.647Z,76004.81
2022-11-23T04:15:42.438Z,76006.88
2022-11-23T04:18:10.338Z,76004.81
2022-11-23T04:20:38.115Z,76006.88
2022-11-23T04:23:12.910Z,76006.88
2022-11-23T04:25:41.307Z,75998.72
2022-11-23T04:28:10.301Z,75996.66
2022-11-23T04:30:38.111Z,75994.63
2022-11-23T04:33:06.062Z,76000.75
2022-11-23T04:35:34.218Z,75996.66
2022-11-23T04:38:02.486Z,75996.66
2022-11-23T04:40:31.795Z,76000.75
2022-11-23T04:43:01.805Z,76000.75
2022-11-23T04:45:29.939Z,75996.66
2022-11-23T04:47:57.692Z,75998.72
2022-11-23T04:50:25.503Z,75992.59
2022-11-23T04:52:53.497Z,75992.59
2022-11-23T04:55:21.320Z,75992.59
2022-11-23T04:57:50.444Z,75996.66
2022-11-23T05:00:18.947Z,75994.63
2022-11-23T05:02:46.754Z,76000.75
2022-11-23T05:05:14.531Z,75996.66
2022-11-23T05:07:42.431Z,75994.63
2022-11-23T05:10:10.976Z,75998.72
2022-11-23T05:12:38.811Z,75996.66
2022-11-23T05:15:08.967Z,75996.66
2022-11-23T05:17:36.764Z,75996.66
2022-11-23T05:20:05.185Z,75996.66
2022-11-23T05:22:32.992Z,75992.59
2022-11-23T05:25:00.809Z,75996.66
2022-11-23T05:27:28.639Z,75988.50
2022-11-23T05:29:56.477Z,75986.47
2022-11-23T05:32:25.574Z,75988.50
2022-11-23T05:34:53.343Z,75980.34
2022-11-23T05:37:21.161Z,75986.47
2022-11-23T05:39:48.998Z,75982.41
2022-11-23T05:42:16.840Z,75984.44
2022-11-23T05:44:44.684Z,75984.44
2022-11-23T05:47:12.436Z,75984.44
2022-11-23T05:49:41.600Z,75984.44
2022-11-23T05:52:09.422Z,75982.41
2022-11-23T05:54:37.233Z,75984.44
2022-11-23T05:57:05.297Z,75982.41
2022-11-23T05:59:33.594Z,75980.34
2022-11-23T06:02:01.733Z,75980.34
2022-11-23T06:04:29.771Z,75980.34
2022-11-23T06:07:01.092Z,75978.31
2022-11-23T06:09:29.471Z,75976.28
2022-11-23T06:11:57.494Z,75976.28
2022-11-23T06:14:25.274Z,75980.34
2022-11-23T06:16:53.188Z,75974.25
2022-11-23T06:19:21.024Z,75968.13
2022-11-23T06:21:50.503Z,75972.22
2022-11-23T06:24:19.926Z,75980.34
2022-11-23T06:26:47.760Z,75980.34
2022-11-23T06:29:15.735Z,75976.28
2022-11-23T06:31:43.510Z,75976.28
2022-11-23T06:34:11.401Z,75972.22
2022-11-23T06:36:39.294Z,75976.28
2022-11-23T06:39:07.231Z,75966.09
2022-11-23T06:41:36.564Z,75968.13
2022-11-23T06:44:04.665Z,75968.13
2022-11-23T06:46:32.483Z,75964.06
2022-11-23T06:49:00.366Z,75968.13
2022-11-23T06:51:28.137Z,75964.06
2022-11-23T06:53:55.933Z,75955.91
2022-11-23T06:56:23.746Z,75955.91
2022-11-23T06:58:52.924Z,75955.91
2022-11-23T07:01:20.723Z,75951.81
2022-11-23T07:03:48.623Z,75951.81
2022-11-23T07:06:16.450Z,75951.81
2022-11-23T07:08:44.465Z,75951.81
2022-11-23T07:11:13.084Z,75955.91
2022-11-23T07:13:40.908Z,75949.78
2022-11-23T07:16:10.164Z,75947.75
2022-11-23T07:18:38.011Z,75951.81
2022-11-23T07:21:05.782Z,75943.66
2022-11-23T07:23:33.596Z,75945.69
2022-11-23T07:26:03.961Z,75951.81
2022-11-23T07:28:31.781Z,75945.69
2022-11-23T07:30:59.631Z,75947.75
2022-11-23T07:33:28.882Z,75943.66
2022-11-23T07:35:56.662Z,75931.44
2022-11-23T07:38:24.476Z,75927.34
2022-11-23T07:40:52.285Z,75925.31
2022-11-23T07:43:20.045Z,75929.41
2022-11-23T07:45:47.859Z,75929.41
2022-11-23T07:48:16.583Z,75923.28
2022-11-23T07:50:45.730Z,75915.13
2022-11-23T07:53:13.541Z,75915.13
2022-11-23T07:55:41.369Z,75915.13
2022-11-23T07:58:10.575Z,75902.88
2022-11-23T08:00:38.812Z,75894.75
2022-11-23T08:05:55.766Z,75886.56
2022-11-23T08:08:23.883Z,75890.66
2022-11-23T08:10:54.317Z,75878.44
2022-11-23T08:13:22.973Z,75878.44
2022-11-23T08:15:55.360Z,75874.34
2022-11-23T08:18:24.235Z,75870.28
2022-11-23T08:20:52.215Z,75870.28
2022-11-23T08:23:22.054Z,75866.19
2022-11-23T08:25:49.947Z,75860.06
2022-11-23T08:28:18.170Z,75856.00
2022-11-23T08:30:46.006Z,75847.84
2022-11-23T08:33:14.953Z,75847.84
2022-11-23T08:35:43.677Z,75845.81
2022-11-23T08:38:12.126Z,75843.75
2022-11-23T08:40:41.312Z,75837.66
2022-11-23T08:43:09.332Z,75833.56
2022-11-23T08:45:37.140Z,75829.50
2022-11-23T08:48:06.042Z,75823.38
2022-11-23T08:50:35.498Z,75823.38
2022-11-23T08:53:03.326Z,75813.19
2022-11-23T08:55:31.157Z,75813.19
2022-11-23T08:58:00.833Z,75800.97
2022-11-23T09:00:28.933Z,75792.81
2022-11-23T09:02:58.892Z,75780.56
2022-11-23T09:05:26.857Z,75784.66
2022-11-23T09:07:54.676Z,75784.66
2022-11-23T09:10:24.035Z,75784.66
2022-11-23T09:12:51.860Z,75780.56
2022-11-23T09:15:21.668Z,75786.69
2022-11-23T09:17:49.434Z,75784.66
2022-11-23T09:20:17.529Z,75776.50
2022-11-23T09:22:45.593Z,75776.50
2022-11-23T09:25:13.415Z,75774.47
2022-11-23T09:27:41.268Z,75768.34
2022-11-23T09:30:10.807Z,75766.31
2022-11-23T09:32:39.947Z,75764.25
2022-11-23T09:35:08.949Z,75752.03
2022-11-23T09:37:36.899Z,75754.06
2022-11-23T09:40:05.720Z,75754.06
2022-11-23T09:42:53.028Z,75758.16
2022-11-23T09:45:29.410Z,75756.09
2022-11-23T09:48:16.187Z,75747.94
2022-11-23T09:50:48.830Z,75745.91
2022-11-23T09:53:20.887Z,75737.75
2022-11-23T09:55:51.117Z,75735.72
2022-11-23T09:58:21.121Z,75731.66
2022-11-23T10:00:52.304Z,75739.81
2022-11-23T10:03:21.522Z,75743.88
2022-11-23T10:06:02.836Z,75739.81
2022-11-23T10:08:39.607Z,75731.66
2022-11-23T10:11:35.423Z,75727.56
2022-11-23T10:14:14.852Z,75717.38
2022-11-23T10:16:54.425Z,75715.34
2022-11-23T10:19:34.108Z,75711.25
2022-11-23T10:22:10.497Z,75719.41
2022-11-23T10:24:43.507Z,75715.34
2022-11-23T10:27:16.594Z,75707.19
2022-11-23T10:29:46.183Z,75715.34
2022-11-23T10:32:27.612Z,75707.19
2022-11-23T10:35:04.644Z,75703.09
2022-11-23T10:37:34.757Z,75694.94
2022-11-23T10:40:03.071Z,75682.72
2022-11-23T10:42:34.929Z,75686.78
2022-11-23T10:45:04.682Z,75682.72
2022-11-23T10:47:42.959Z,75686.78
2022-11-23T10:50:30.226Z,75690.88
2022-11-23T10:53:00.575Z,75686.78
2022-11-23T10:55:31.403Z,75694.94
2022-11-23T10:58:00.279Z,75694.94
2022-11-23T11:00:31.450Z,75703.09
2022-11-23T11:03:02.457Z,75703.09
2022-11-23T11:08:25.166Z,75711.25
2022-11-23T11:11:00.288Z,75703.09
2022-11-23T11:13:31.541Z,75694.94
2022-11-23T11:16:01.971Z,75690.88
2022-11-23T11:18:32.028Z,75680.69
2022-11-23T11:21:05.684Z,75690.88
2022-11-23T11:23:36.158Z,75690.88
2022-11-23T11:26:12.624Z,75688.84
2022-11-23T11:28:44.677Z,75686.78
2022-11-23T11:31:44.647Z,75684.75
2022-11-23T11:34:20.987Z,75682.72
2022-11-23T11:36:58.225Z,75686.78
2022-11-23T11:39:33.879Z,75676.59
2022-11-23T11:42:06.771Z,75678.63
2022-11-23T11:44:40.538Z,75680.69
2022-11-23T11:47:22.817Z,75680.69
2022-11-23T11:49:55.457Z,75678.63
2022-11-23T11:52:29.218Z,75678.63
2022-11-23T11:55:14.657Z,75674.56
2022-11-23T11:57:46.906Z,75670.50
2022-11-23T12:00:18.796Z,75662.34
2022-11-23T12:02:58.559Z,75656.22
2022-11-23T12:05:31.887Z,75654.19
2022-11-23T12:08:07.703Z,75658.25
2022-11-23T12:10:41.805Z,75660.28
2022-11-23T12:13:14.808Z,75656.22
2022-11-23T12:15:49.818Z,75648.06
2022-11-23T12:18:52.053Z,75652.13
2022-11-23T12:21:50.123Z,75650.09
2022-11-23T12:24:36.904Z,75650.09
2022-11-23T12:27:17.513Z,75646.03
2022-11-23T12:30:01.313Z,75646.03
2022-11-23T12:32:41.780Z,75644.00
2022-11-23T12:35:29.803Z,75646.03
2022-11-23T12:38:11.005Z,75635.84
2022-11-23T12:40:56.274Z,75637.88
2022-11-23T12:43:35.244Z,75633.78
2022-11-23T12:46:15.728Z,75629.72
2022-11-23T12:48:58.577Z,75625.63
2022-11-23T12:51:36.423Z,75637.88
2022-11-23T12:54:25.452Z,75639.91
2022-11-23T12:57:07.524Z,75641.94
2022-11-23T12:59:44.463Z,75644.00
2022-11-23T13:02:26.602Z,75637.88
2022-11-23T13:05:22.155Z,75633.78
2022-11-23T13:08:08.132Z,75633.78
2022-11-23T13:10:58.805Z,75639.91
2022-11-23T13:13:45.563Z,75637.88
2022-11-23T13:16:57.822Z,75633.78
2022-11-23T13:20:11.490Z,75641.94
2022-11-23T13:22:44.197Z,75646.03
2022-11-23T13:25:24.617Z,75641.94
2022-11-23T13:27:59.069Z,75646.03
2022-11-23T13:30:59.260Z,75648.06
2022-11-23T13:33:31.740Z,75654.19
2022-11-23T13:36:10.110Z,75650.09
2022-11-23T13:38:41.696Z,75652.13
2022-11-23T13:41:55.444Z,75648.06
2022-11-23T13:44:26.266Z,75654.19
2022-11-23T13:47:02.258Z,75654.19
2022-11-23T13:49:32.515Z,75660.28
2022-11-23T13:52:28.453Z,75662.34
2022-11-23T13:55:08.832Z,75662.34
2022-11-23T13:57:37.905Z,75664.38
2022-11-23T14:00:43.188Z,75664.38
2022-11-23T14:03:50.577Z,75666.41
2022-11-23T14:06:44.314Z,75654.19
2022-11-23T14:09:20.664Z,75670.50
2022-11-23T14:12:04.488Z,75666.41
2022-11-23T14:14:57.783Z,75662.34
2022-11-23T14:18:01.024Z,75668.44
2022-11-23T14:20:48.187Z,75666.41
2022-11-23T14:23:56.004Z,75666.41
2022-11-23T14:26:34.808Z,75666.41
2022-11-23T14:29:32.889Z,75672.53
2022-11-23T14:32:15.059Z,75676.59
2022-11-23T14:34:55.013Z,75670.50
2022-11-23T14:37:44.366Z,75674.56
2022-11-23T14:40:19.740Z,75680.69
2022-11-23T14:42:56.663Z,75674.56
2022-11-23T14:45:28.555Z,75674.56
2022-11-23T14:47:56.459Z,75676.59
2022-11-23T14:50:26.485Z,75678.63
2022-11-23T14:52:58.868Z,75674.56
2022-11-23T14:55:29.194Z,75672.53
2022-11-23T14:57:59.848Z,75672.53
2022-11-23T15:00:32.201Z,75670.50
2022-11-23T15:03:27.063Z,75666.41
2022-11-23T15:05:58.660Z,75672.53
2022-11-23T15:08:31.979Z,75674.56
2022-11-23T15:11:06.587Z,75674.56
2022-11-23T15:13:44.576Z,75680.69
2022-11-23T15:16:13.897Z,75676.59
2022-11-23T15:18:42.509Z,75684.75
2022-11-23T15:21:25.380Z,75680.69
2022-11-23T15:23:58.528Z,75678.63
2022-11-23T15:26:47.322Z,75678.63
2022-11-23T15:29:30.623Z,75678.63
2022-11-23T15:34:47.568Z,75682.72
2022-11-23T15:37:15.858Z,75686.78
2022-11-23T15:39:45.323Z,75688.84
2022-11-23T15:42:18.534Z,75688.84
2022-11-23T15:44:51.533Z,75690.88
2022-11-23T15:47:24.944Z,75692.91
2022-11-23T15:49:55.627Z,75690.88
2022-11-23T15:52:23.887Z,75694.94
2022-11-23T15:54:53.182Z,75703.09
2022-11-23T15:57:24.377Z,75701.06
2022-11-23T15:59:58.189Z,75699.03
2022-11-23T16:02:29.314Z,75705.16
2022-11-23T16:05:06.281Z,75701.06
2022-11-23T16:07:34.564Z,75707.19
2022-11-23T16:10:18.360Z,75699.03
2022-11-23T16:12:51.557Z,75703.09
2022-11-23T16:15:41.454Z,75709.22
2022-11-23T16:18:22.009Z,75709.22
2022-11-23T16:20:52.853Z,75707.19
2022-11-23T16:23:23.162Z,75705.16
2022-11-23T16:25:58.359Z,75703.09
2022-11-23T16:28:29.620Z,75711.25
2022-11-23T16:30:57.923Z,75713.28
2022-11-23T16:33:26.349Z,75711.25
2022-11-23T16:35:54.445Z,75701.06
2022-11-23T16:38:22.699Z,75705.16
2022-11-23T16:40:50.771Z,75705.16
2022-11-23T16:43:20.194Z,75707.19
2022-11-23T16:45:51.649Z,75707.19
2022-11-23T16:48:39.086Z,75715.34
2022-11-23T16:51:08.083Z,75723.50
2022-11-23T16:54:00.404Z,75727.56
2022-11-23T16:56:26.210Z,75727.56
2022-11-23T16:58:56.027Z,75723.50
2022-11-23T17:01:26.266Z,75727.56
2022-11-23T17:03:54.623Z,75727.56
2022-11-23T17:06:23.858Z,75731.66
2022-11-23T17:09:00.455Z,75735.72
2022-11-23T17:11:31.151Z,75735.72
2022-11-23T17:14:00.342Z,75735.72
2022-11-23T17:16:28.212Z,75739.81
2022-11-23T17:18:55.979Z,75743.88
2022-11-23T17:21:23.929Z,75741.84
2022-11-23T17:23:52.076Z,75743.88
2022-11-23T17:26:30.851Z,75741.84
2022-11-23T17:29:01.810Z,75739.81
2022-11-23T17:31:29.719Z,75743.88
2022-11-23T17:33:57.666Z,75747.94
2022-11-23T17:36:26.165Z,75739.81
2022-11-23T17:38:54.926Z,75739.81
2022-11-23T17:41:22.899Z,75752.03
2022-11-23T17:43:50.785Z,75752.03
2022-11-23T17:46:23.843Z,75747.94
2022-11-23T17:48:55.227Z,75752.03
2022-11-23T17:51:23.236Z,75756.09
2022-11-23T17:53:52.036Z,75758.16
2022-11-23T17:56:22.301Z,75764.25
2022-11-23T17:58:52.350Z,75768.34
2022-11-23T18:01:23.772Z,75764.25
2022-11-23T18:03:51.926Z,75768.34
2022-11-23T18:06:21.572Z,75764.25
2022-11-23T18:08:50.547Z,75762.22
2022-11-23T18:11:19.109Z,75764.25
2022-11-23T18:13:48.633Z,75772.41
2022-11-23T18:16:16.908Z,75768.34
2022-11-23T18:18:46.115Z,75760.19
2022-11-23T18:21:14.522Z,75766.31
2022-11-23T18:23:42.578Z,75764.25
2022-11-23T18:26:21.482Z,75764.25
2022-11-23T18:28:50.256Z,75760.19
2022-11-23T18:31:18.753Z,75768.34
2022-11-23T18:33:47.973Z,75764.25
2022-11-23T18:36:16.240Z,75768.34
2022-11-23T18:38:45.762Z,75766.31
2022-11-23T18:41:16.228Z,75770.38
2022-11-23T18:43:44.697Z,75774.47
2022-11-23T18:46:19.068Z,75776.50
2022-11-23T18:48:50.144Z,75778.53
2022-11-23T18:51:18.843Z,75784.66
2022-11-23T18:53:48.020Z,75782.59
2022-11-23T18:56:16.062Z,75788.72
2022-11-23T18:58:45.624Z,75800.97
2022-11-23T19:01:15.308Z,75811.16
2022-11-23T19:03:43.345Z,75809.13
2022-11-23T19:06:14.371Z,75813.19
2022-11-23T19:08:43.578Z,75813.19
2022-11-23T19:11:16.251Z,75815.22
2022-11-23T19:13:44.841Z,75823.38
2022-11-23T19:16:15.185Z,75825.41
2022-11-23T19:18:43.737Z,75829.50
2022-11-23T19:21:18.446Z,75821.34
2022-11-23T19:23:51.408Z,75827.47
2022-11-23T19:26:20.092Z,75825.41
2022-11-23T19:28:48.191Z,75833.56
2022-11-23T19:31:17.774Z,75833.56
2022-11-23T19:33:47.045Z,75833.56
2022-11-23T19:36:18.433Z,75837.66
2022-11-23T19:38:46.468Z,75837.66
2022-11-23T19:41:14.496Z,75831.53
2022-11-23T19:43:42.951Z,75829.50
2022-11-23T19:46:13.350Z,75827.47
2022-11-23T19:48:42.187Z,75833.56
2022-11-23T19:51:12.984Z,75825.41
2022-11-23T19:53:44.499Z,75823.38
2022-11-23T19:56:14.184Z,75833.56
2022-11-23T19:58:42.882Z,75829.50
2022-11-23T20:01:12.574Z,75837.66
2022-11-23T20:03:41.833Z,75835.63
2022-11-23T20:06:13.251Z,75841.72
2022-11-23T20:08:42.513Z,75843.75
2022-11-23T20:11:12.518Z,75843.75
2022-11-23T20:13:40.998Z,75853.97
2022-11-23T20:16:10.974Z,75849.88
2022-11-23T20:18:38.814Z,75858.03
2022-11-23T20:21:11.818Z,75858.03
2022-11-23T20:23:39.754Z,75862.13
2022-11-23T20:26:09.378Z,75862.13
2022-11-23T20:28:37.494Z,75864.16
2022-11-23T20:31:05.976Z,75866.19
2022-11-23T20:33:34.497Z,75866.19
2022-11-23T20:36:09.972Z,75866.19
2022-11-23T20:38:38.757Z,75870.28
2022-11-23T20:41:15.595Z,75874.34
2022-11-23T20:43:44.542Z,75878.44
2022-11-23T20:46:12.797Z,75884.53
2022-11-23T20:48:41.443Z,75884.53
2022-11-23T20:51:10.832Z,75886.56
2022-11-23T20:53:38.804Z,75890.66
2022-11-23T20:56:08.863Z,75880.47
2022-11-23T20:58:38.948Z,75884.53
2022-11-23T21:01:08.068Z,75886.56
2022-11-23T21:03:36.502Z,75894.75
2022-11-23T21:06:06.168Z,75890.66
2022-11-23T21:08:35.323Z,75898.81
2022-11-23T21:11:25.131Z,75896.78
2022-11-23T21:14:14.027Z,75902.88
2022-11-23T21:16:48.988Z,75906.97
2022-11-23T21:19:16.847Z,75911.03
2022-11-23T21:21:44.653Z,75911.03
2022-11-23T21:24:12.499Z,75906.97
2022-11-23T21:26:40.373Z,75911.03
2022-11-23T21:29:11.404Z,75913.09
2022-11-23T21:31:40.639Z,75911.03
2022-11-23T21:34:10.558Z,75911.03
2022-11-23T21:36:39.758Z,75919.19
2022-11-23T21:39:09.516Z,75913.09
2022-11-23T21:41:38.083Z,75919.19
2022-11-23T21:44:06.513Z,75925.31
2022-11-23T21:46:36.240Z,75931.44
2022-11-23T21:49:04.954Z,75935.50
2022-11-23T21:51:33.129Z,75941.63
2022-11-23T21:54:05.352Z,75943.66
2022-11-23T21:56:33.813Z,75947.75
2022-11-23T21:59:02.047Z,75945.69
2022-11-23T22:01:31.740Z,75947.75
2022-11-23T22:04:03.379Z,75951.81
2022-11-23T22:06:31.843Z,75953.84
2022-11-23T22:09:00.739Z,75951.81
2022-11-23T22:11:30.123Z,75953.84
2022-11-23T22:14:02.492Z,75957.94
2022-11-23T22:16:32.003Z,75964.06
2022-11-23T22:19:02.109Z,75955.91
2022-11-23T22:21:33.706Z,75955.91
2022-11-23T22:24:02.073Z,75955.91
2022-11-23T22:26:29.968Z,75964.06
2022-11-23T22:29:02.343Z,75970.16
2022-11-23T22:31:33.117Z,75968.13
2022-11-23T22:34:03.285Z,75976.28
2022-11-23T22:36:31.481Z,75972.22
2022-11-23T22:39:02.133Z,75974.25
2022-11-23T22:41:30.995Z,75984.44
2022-11-23T22:43:59.711Z,75984.44
2022-11-23T22:46:27.936Z,75984.44
2022-11-23T22:48:59.238Z,75996.66
2022-11-23T22:51:30.132Z,75996.66
2022-11-23T22:53:59.607Z,76000.75
2022-11-23T22:56:28.188Z,76004.81
2022-11-23T22:58:56.016Z,76012.97
2022-11-23T23:01:26.529Z,76015.03
2022-11-23T23:03:56.029Z,76027.25
2022-11-23T23:06:26.037Z,76033.38
2022-11-23T23:08:56.875Z,76041.53
2022-11-23T23:11:26.000Z,76049.69
2022-11-23T23:13:54.245Z,76049.69
2022-11-23T23:16:22.811Z,76061.91
2022-11-23T23:18:51.546Z,76066.00
2022-11-23T23:21:21.342Z,76070.06
2022-11-23T23:23:50.758Z,76074.16
2022-11-23T23:26:23.280Z,76068.03
2022-11-23T23:28:54.708Z,76070.06
2022-11-23T23:31:23.122Z,76072.09
2022-11-23T23:33:51.096Z,76076.19
2022-11-23T23:36:20.870Z,76070.06
2022-11-23T23:38:49.763Z,76068.03
2022-11-23T23:41:19.332Z,76066.00
2022-11-23T23:43:48.142Z,76057.84
2022-11-23T23:46:16.471Z,76047.63
2022-11-23T23:48:44.500Z,76049.69
2022-11-23T23:51:14.584Z,76043.56
2022-11-23T23:53:43.129Z,76045.59
2022-11-23T23:56:14.673Z,76057.84
2022-11-23T23:58:44.347Z,76053.75
